createdAt,value
2023-01-13T00:01:26.571Z,76.98
2023-01-13T00:03:53.588Z,76.90
2023-01-13T00:06:25.872Z,75.69
2023-01-13T00:08:53.569Z,73.25
2023-01-13T00:11:21.183Z,71.51
2023-01-13T00:13:47.994Z,70.88
2023-01-13T00:16:17.450Z,68.85
2023-01-13T00:18:45.683Z,67.40
2023-01-13T00:21:14.430Z,67.02
2023-01-13T00:23:42.245Z,65.92
2023-01-13T00:26:23.753Z,65.24
2023-01-13T00:28:51.498Z,65.46
2023-01-13T00:31:21.077Z,66.05
2023-01-13T00:33:51.738Z,66.00
2023-01-13T00:36:20.911Z,65.17
2023-01-13T00:38:48.246Z,66.80
2023-01-13T00:41:19.982Z,68.14
2023-01-13T00:43:47.265Z,68.95
2023-01-13T00:46:17.743Z,68.71
2023-01-13T00:48:44.901Z,70.15
2023-01-13T00:51:15.074Z,72.79
2023-01-13T00:53:44.595Z,73.21
2023-01-13T00:56:30.549Z,72.25
2023-01-13T00:59:05.793Z,75.43
2023-01-13T01:01:33.078Z,76.14
2023-01-13T01:04:00.155Z,75.80
2023-01-13T01:06:28.158Z,76.33
2023-01-13T01:08:56.338Z,75.99
2023-01-13T01:11:26.230Z,76.11
2023-01-13T01:13:55.040Z,76.38
2023-01-13T01:16:24.666Z,76.33
2023-01-13T01:18:53.088Z,75.51
2023-01-13T01:21:21.246Z,76.43
2023-01-13T01:23:48.175Z,75.51
2023-01-13T01:26:20.820Z,74.93
2023-01-13T01:28:48.229Z,75.50
2023-01-13T01:31:17.751Z,75.39
2023-01-13T01:33:44.763Z,75.08
2023-01-13T01:36:12.471Z,74.74
2023-01-13T01:38:39.345Z,75.83
2023-01-13T01:41:07.170Z,76.00
2023-01-13T01:44:08.284Z,75.81
2023-01-13T01:46:40.899Z,76.75
2023-01-13T01:49:23.136Z,76.49
2023-01-13T01:52:04.456Z,76.85
2023-01-13T01:55:02.552Z,77.53
2023-01-13T01:57:53.885Z,77.98
2023-01-13T02:00:21.790Z,78.14
2023-01-13T02:02:50.543Z,77.88
2023-01-13T02:05:18.146Z,76.89
2023-01-13T02:07:49.702Z,77.36
2023-01-13T02:10:23.667Z,77.54
2023-01-13T02:12:52.002Z,78.28
2023-01-13T02:15:23.332Z,77.69
2023-01-13T02:18:22.224Z,78.49
2023-01-13T02:21:26.299Z,77.87
2023-01-13T02:24:32.585Z,79.55
2023-01-13T02:27:21.122Z,78.34
2023-01-13T02:30:06.473Z,78.65
2023-01-13T02:32:43.883Z,79.58
2023-01-13T02:35:22.312Z,80.20
2023-01-13T02:37:50.233Z,78.91
2023-01-13T02:40:27.491Z,80.15
2023-01-13T02:43:51.049Z,81.04
2023-01-13T02:46:20.448Z,80.20
2023-01-13T02:48:50.681Z,80.88
2023-01-13T02:51:21.574Z,81.10
2023-01-13T02:53:58.594Z,81.48
2023-01-13T02:56:27.839Z,81.72
2023-01-13T02:58:57.394Z,80.42
2023-01-13T03:01:24.579Z,80.41
2023-01-13T03:03:51.506Z,80.06
2023-01-13T03:06:35.980Z,79.56
2023-01-13T03:09:40.027Z,80.66
2023-01-13T03:12:26.045Z,79.34
2023-01-13T03:14:55.907Z,80.38
2023-01-13T03:17:30.148Z,80.60
2023-01-13T03:20:21.248Z,79.66
2023-01-13T03:22:56.872Z,80.32
2023-01-13T03:25:23.694Z,80.36
2023-01-13T03:27:58.863Z,79.37
2023-01-13T03:30:32.621Z,79.25
2023-01-13T03:33:11.646Z,79.91
2023-01-13T03:35:42.284Z,80.05
2023-01-13T03:38:15.874Z,80.07
2023-01-13T03:40:50.431Z,80.40
2023-01-13T03:43:53.856Z,80.26
2023-01-13T03:46:29.796Z,79.05
2023-01-13T03:49:00.181Z,79.31
2023-01-13T03:51:31.571Z,79.60
2023-01-13T03:54:03.045Z,79.95
2023-01-13T03:56:45.475Z,78.63
2023-01-13T03:59:19.964Z,77.92
2023-01-13T04:01:53.130Z,77.74
2023-01-13T04:04:27.510Z,79.22
2023-01-13T04:07:03.645Z,77.48
2023-01-13T04:09:36.857Z,76.77
2023-01-13T04:12:21.586Z,77.88
2023-01-13T04:14:49.541Z,77.13
2023-01-13T04:17:16.782Z,78.67
2023-01-13T04:19:43.777Z,77.70
2023-01-13T04:22:10.697Z,78.57
2023-01-13T04:24:37.645Z,78.60
2023-01-13T04:27:04.733Z,79.35
2023-01-13T04:29:32.158Z,78.52
2023-01-13T04:31:59.116Z,79.09
2023-01-13T04:34:28.200Z,79.50
2023-01-13T04:36:55.341Z,79.44
2023-01-13T04:39:22.206Z,79.46
2023-01-13T04:41:58.276Z,79.94
2023-01-13T04:44:26.394Z,80.44
2023-01-13T04:46:53.760Z,80.14
2023-01-13T04:49:20.689Z,80.62
2023-01-13T04:51:47.570Z,81.77
2023-01-13T04:54:14.593Z,82.10
2023-01-13T04:56:41.396Z,81.37
2023-01-13T04:59:10.831Z,82.80
2023-01-13T05:01:38.136Z,82.17
2023-01-13T05:04:05.784Z,82.62
2023-01-13T05:06:32.950Z,83.28
2023-01-13T05:08:59.891Z,83.66
2023-01-13T05:11:45.470Z,82.54
2023-01-13T05:14:31.039Z,83.50
2023-01-13T05:17:00.966Z,82.64
2023-01-13T05:19:33.178Z,82.69
2023-01-13T05:22:19.477Z,82.89
2023-01-13T05:25:05.086Z,82.79
2023-01-13T05:27:33.035Z,83.33
2023-01-13T05:30:00.226Z,83.47
2023-01-13T05:32:30.349Z,83.85
2023-01-13T05:34:57.489Z,82.89
2023-01-13T05:37:25.967Z,83.46
2023-01-13T05:40:11.350Z,83.14
2023-01-13T05:42:56.955Z,81.58
2023-01-13T05:45:24.293Z,82.67
2023-01-13T05:47:51.353Z,82.14
2023-01-13T05:50:18.709Z,82.90
2023-01-13T05:52:45.771Z,81.48
2023-01-13T05:55:12.769Z,83.11
2023-01-13T05:57:39.570Z,82.54
2023-01-13T06:00:07.279Z,82.73
2023-01-13T06:02:39.891Z,82.55
2023-01-13T06:05:07.044Z,82.21
2023-01-13T06:07:34.067Z,81.25
2023-01-13T06:10:00.940Z,82.01
2023-01-13T06:12:27.889Z,82.75
2023-01-13T06:14:54.749Z,80.45
2023-01-13T06:17:21.620Z,81.82
2023-01-13T06:19:48.520Z,81.01
2023-01-13T06:22:23.762Z,79.93
2023-01-13T06:24:53.601Z,81.60
2023-01-13T06:27:21.697Z,82.52
2023-01-13T06:29:48.555Z,82.21
2023-01-13T06:32:19.632Z,82.06
2023-01-13T06:34:53.024Z,81.48
2023-01-13T06:37:25.386Z,81.75
2023-01-13T06:39:58.147Z,82.66
2023-01-13T06:42:47.057Z,82.69
2023-01-13T06:45:14.245Z,81.51
2023-01-13T06:47:41.676Z,81.04
2023-01-13T06:50:09.235Z,81.58
2023-01-13T06:52:36.053Z,81.46
2023-01-13T06:55:03.449Z,80.53
2023-01-13T06:57:30.459Z,79.42
2023-01-13T06:59:57.253Z,80.38
2023-01-13T07:02:24.191Z,80.07
2023-01-13T07:04:51.147Z,81.62
2023-01-13T07:07:17.962Z,81.93
2023-01-13T07:09:44.779Z,81.30
2023-01-13T07:12:12.424Z,80.35
2023-01-13T07:14:58.150Z,80.10
2023-01-13T07:17:28.001Z,79.25
2023-01-13T07:19:58.146Z,80.66
2023-01-13T07:22:25.225Z,79.74
2023-01-13T07:24:52.105Z,80.45
2023-01-13T07:27:19.002Z,80.89
2023-01-13T07:29:45.833Z,80.14
2023-01-13T07:32:12.664Z,80.21
2023-01-13T07:34:39.642Z,80.42
2023-01-13T07:37:06.514Z,80.02
2023-01-13T07:39:33.374Z,80.21
2023-01-13T07:42:18.962Z,80.42
2023-01-13T07:44:45.828Z,81.14
2023-01-13T07:47:12.689Z,79.43
2023-01-13T07:49:39.723Z,78.34
2023-01-13T07:52:06.956Z,79.40
2023-01-13T07:54:40.758Z,79.64
2023-01-13T07:57:09.340Z,80.42
2023-01-13T07:59:36.332Z,79.51
2023-01-13T08:02:03.561Z,79.43
2023-01-13T08:04:30.519Z,78.09
2023-01-13T08:06:57.385Z,77.47
2023-01-13T08:09:24.278Z,78.00
2023-01-13T08:12:14.559Z,77.26
2023-01-13T08:14:41.739Z,77.87
2023-01-13T08:17:09.453Z,77.45
2023-01-13T08:19:36.422Z,76.99
2023-01-13T08:22:03.385Z,76.56
2023-01-13T08:24:30.261Z,76.68
2023-01-13T08:26:57.133Z,74.04
2023-01-13T08:29:23.964Z,73.04
2023-01-13T08:31:50.815Z,71.80
2023-01-13T08:34:17.763Z,72.38
2023-01-13T08:36:44.656Z,71.99
2023-01-13T08:39:11.448Z,71.76
2023-01-13T08:41:56.563Z,73.27
2023-01-13T08:44:25.355Z,73.52
2023-01-13T08:46:52.274Z,74.70
2023-01-13T08:49:19.749Z,74.84
2023-01-13T08:51:46.726Z,74.73
2023-01-13T08:54:14.117Z,75.22
2023-01-13T08:56:42.852Z,74.23
2023-01-13T08:59:13.369Z,75.14
2023-01-13T09:01:41.163Z,74.13
2023-01-13T09:04:18.257Z,73.14
2023-01-13T09:06:46.423Z,74.30
2023-01-13T09:09:13.661Z,73.42
2023-01-13T09:12:05.891Z,73.58
2023-01-13T09:14:34.967Z,74.61
2023-01-13T09:17:01.886Z,74.56
2023-01-13T09:19:29.656Z,73.32
2023-01-13T09:21:57.718Z,73.19
2023-01-13T09:24:25.445Z,74.09
2023-01-13T09:26:52.466Z,74.47
2023-01-13T09:29:20.125Z,74.92
2023-01-13T09:31:47.351Z,75.72
2023-01-13T09:34:36.718Z,74.77
2023-01-13T09:37:05.401Z,74.72
2023-01-13T09:39:33.273Z,74.41
2023-01-13T09:42:30.164Z,74.36
2023-01-13T09:45:20.947Z,75.19
2023-01-13T09:48:13.846Z,74.78
2023-01-13T09:50:43.763Z,75.42
2023-01-13T09:53:19.021Z,73.88
2023-01-13T09:55:46.452Z,74.33
2023-01-13T09:58:18.597Z,74.91
2023-01-13T10:00:53.914Z,74.66
2023-01-13T10:03:25.737Z,75.29
2023-01-13T10:06:11.385Z,75.06
2023-01-13T10:08:41.280Z,75.13
2023-01-13T10:11:41.375Z,74.24
2023-01-13T10:14:11.024Z,74.14
2023-01-13T10:16:44.685Z,73.91
2023-01-13T10:19:17.885Z,74.44
2023-01-13T10:22:04.544Z,74.73
2023-01-13T10:24:49.372Z,74.38
2023-01-13T10:27:30.558Z,74.19
2023-01-13T10:29:57.598Z,75.03
2023-01-13T10:32:24.573Z,74.54
2023-01-13T10:34:52.380Z,74.36
2023-01-13T10:37:25.981Z,75.15
2023-01-13T10:40:00.647Z,74.86
2023-01-13T10:42:27.598Z,74.34
2023-01-13T10:44:59.488Z,74.01
2023-01-13T10:47:32.145Z,74.52
2023-01-13T10:50:17.199Z,73.41
2023-01-13T10:53:03.167Z,73.44
2023-01-13T10:55:38.720Z,73.29
2023-01-13T10:58:19.430Z,74.44
2023-01-13T11:00:47.367Z,73.82
2023-01-13T11:03:20.715Z,73.65
2023-01-13T11:05:55.587Z,75.22
2023-01-13T11:08:26.548Z,74.30
2023-01-13T11:10:59.290Z,73.67
2023-01-13T11:14:03.746Z,75.52
2023-01-13T11:16:30.856Z,73.73
2023-01-13T11:19:11.908Z,74.44
2023-01-13T11:22:07.278Z,73.37
2023-01-13T11:24:45.096Z,73.92
2023-01-13T11:27:22.792Z,74.07
2023-01-13T11:30:03.014Z,73.40
2023-01-13T11:32:36.416Z,73.68
2023-01-13T11:35:16.467Z,73.77
2023-01-13T11:37:50.803Z,73.25
2023-01-13T11:40:34.700Z,72.30
2023-01-13T11:43:20.585Z,72.09
2023-01-13T11:45:59.143Z,72.07
2023-01-13T11:48:30.154Z,71.71
2023-01-13T11:51:15.196Z,72.99
2023-01-13T11:54:29.169Z,71.59
2023-01-13T11:57:22.883Z,70.51
2023-01-13T12:00:31.715Z,71.37
2023-01-13T12:03:17.582Z,70.98
2023-01-13T12:05:53.101Z,71.31
2023-01-13T12:08:38.319Z,71.40
2023-01-13T12:11:32.818Z,71.60
2023-01-13T12:14:19.586Z,71.65
2023-01-13T12:16:49.651Z,70.79
2023-01-13T12:19:29.270Z,71.15
2023-01-13T12:22:05.122Z,71.00
2023-01-13T12:24:38.144Z,70.34
2023-01-13T12:27:19.323Z,70.92
2023-01-13T12:29:49.164Z,71.14
2023-01-13T12:32:24.567Z,71.00
2023-01-13T12:35:06.706Z,71.45
2023-01-13T12:37:50.133Z,73.00
2023-01-13T12:40:43.880Z,72.85
2023-01-13T12:43:38.853Z,72.64
2023-01-13T12:46:23.688Z,72.63
2023-01-13T12:48:59.417Z,73.02
2023-01-13T12:51:36.669Z,72.64
2023-01-13T12:54:31.288Z,72.23
2023-01-13T12:56:59.195Z,72.13
2023-01-13T12:59:26.048Z,73.64
2023-01-13T13:02:11.349Z,74.00
2023-01-13T13:04:49.734Z,73.82
2023-01-13T13:07:26.785Z,74.54
2023-01-13T13:10:00.561Z,72.45
2023-01-13T13:13:01.238Z,73.27
2023-01-13T13:15:31.391Z,75.16
2023-01-13T13:18:17.005Z,73.94
2023-01-13T13:21:09.192Z,73.50
2023-01-13T13:24:03.088Z,73.30
2023-01-13T13:26:36.125Z,72.69
2023-01-13T13:29:16.704Z,72.72
2023-01-13T13:32:17.670Z,74.11
2023-01-13T13:35:23.431Z,73.17
2023-01-13T13:38:33.881Z,74.44
2023-01-13T13:41:23.500Z,73.32
2023-01-13T13:44:09.717Z,73.64
2023-01-13T13:46:49.883Z,73.60
2023-01-13T13:49:46.779Z,73.46
2023-01-13T13:52:20.640Z,73.97
2023-01-13T13:54:52.182Z,73.66
2023-01-13T13:57:33.877Z,74.46
2023-01-13T14:00:06.703Z,74.03
2023-01-13T14:02:38.941Z,73.47
2023-01-13T14:05:16.956Z,72.41
2023-01-13T14:07:46.036Z,73.19
2023-01-13T14:10:19.657Z,73.80
2023-01-13T14:12:46.693Z,73.82
2023-01-13T14:15:31.528Z,73.06
2023-01-13T14:18:04.138Z,74.55
2023-01-13T14:20:31.349Z,72.95
2023-01-13T14:23:01.703Z,74.31
2023-01-13T14:25:46.260Z,74.42
2023-01-13T14:28:13.083Z,72.85
2023-01-13T14:30:41.783Z,73.17
2023-01-13T14:33:16.751Z,73.27
2023-01-13T14:36:05.554Z,73.53
2023-01-13T14:38:33.054Z,74.39
2023-01-13T14:41:15.578Z,73.75
2023-01-13T14:43:44.523Z,74.51
2023-01-13T14:46:11.854Z,74.72
2023-01-13T14:48:41.139Z,73.68
2023-01-13T14:51:13.360Z,74.56
2023-01-13T14:53:45.171Z,75.04
2023-01-13T14:56:38.282Z,74.75
2023-01-13T14:59:33.759Z,75.49
2023-01-13T15:02:03.269Z,75.57
2023-01-13T15:04:37.692Z,76.71
2023-01-13T15:07:05.017Z,76.61
2023-01-13T15:09:41.678Z,76.41
2023-01-13T15:12:30.914Z,78.32
2023-01-13T15:14:58.272Z,78.35
2023-01-13T15:17:25.242Z,78.16
2023-01-13T15:19:53.781Z,78.69
2023-01-13T15:22:20.590Z,79.93
2023-01-13T15:24:48.177Z,79.54
2023-01-13T15:27:26.286Z,79.70
2023-01-13T15:29:53.250Z,80.62
2023-01-13T15:32:21.724Z,79.61
2023-01-13T15:34:49.013Z,80.15
2023-01-13T15:37:17.216Z,79.88
2023-01-13T15:39:44.215Z,79.42
2023-01-13T15:42:32.874Z,79.58
2023-01-13T15:45:19.061Z,78.44
2023-01-13T15:47:46.171Z,79.07
2023-01-13T15:50:17.623Z,78.67
2023-01-13T15:52:44.599Z,78.14
2023-01-13T15:55:11.555Z,79.94
2023-01-13T15:57:40.512Z,78.91
2023-01-13T16:00:20.408Z,79.41
2023-01-13T16:02:47.597Z,79.03
2023-01-13T16:05:14.662Z,79.37
2023-01-13T16:07:41.820Z,79.78
2023-01-13T16:10:18.053Z,79.82
2023-01-13T16:12:45.155Z,80.15
2023-01-13T16:15:16.855Z,79.65
2023-01-13T16:17:45.563Z,80.21
2023-01-13T16:20:15.246Z,79.72
2023-01-13T16:22:42.264Z,79.99
2023-01-13T16:25:21.747Z,80.29
2023-01-13T16:27:49.090Z,80.58
2023-01-13T16:30:25.007Z,79.67
2023-01-13T16:32:52.211Z,78.75
2023-01-13T16:35:19.641Z,79.42
2023-01-13T16:37:49.801Z,78.94
2023-01-13T16:40:25.953Z,79.95
2023-01-13T16:42:53.267Z,79.92
2023-01-13T16:45:20.140Z,79.58
2023-01-13T16:47:47.472Z,79.17
2023-01-13T16:50:33.736Z,80.32
2023-01-13T16:53:00.583Z,79.05
2023-01-13T16:55:27.928Z,79.11
2023-01-13T16:57:55.095Z,80.38
2023-01-13T17:00:22.430Z,80.26
2023-01-13T17:02:49.578Z,80.45
2023-01-13T17:05:16.629Z,80.54
2023-01-13T17:07:45.759Z,81.18
2023-01-13T17:10:18.542Z,79.62
2023-01-13T17:12:45.470Z,79.72
2023-01-13T17:15:14.384Z,79.75
2023-01-13T17:17:43.426Z,80.05
2023-01-13T17:20:13.110Z,80.96
2023-01-13T17:22:40.685Z,80.30
2023-01-13T17:25:10.396Z,81.27
2023-01-13T17:27:37.395Z,80.92
2023-01-13T17:30:05.062Z,80.29
2023-01-13T17:32:32.020Z,81.05
2023-01-13T17:35:01.670Z,81.02
2023-01-13T17:37:29.352Z,80.10
2023-01-13T17:39:56.197Z,81.56
2023-01-13T17:42:25.078Z,81.06
2023-01-13T17:44:52.028Z,80.58
2023-01-13T17:47:18.969Z,81.37
2023-01-13T17:49:46.209Z,80.09
2023-01-13T17:52:13.245Z,81.55
2023-01-13T17:54:43.151Z,80.31
2023-01-13T17:57:10.765Z,81.03
2023-01-13T17:59:37.644Z,83.03
2023-01-13T18:02:04.938Z,81.99
2023-01-13T18:04:32.077Z,82.03
2023-01-13T18:06:59.001Z,81.66
2023-01-13T18:09:26.828Z,82.72
2023-01-13T18:11:53.781Z,82.47
2023-01-13T18:14:22.580Z,81.15
2023-01-13T18:16:49.801Z,82.43
2023-01-13T18:19:35.597Z,83.29
2023-01-13T18:22:21.294Z,82.27
2023-01-13T18:25:06.909Z,83.27
2023-01-13T18:27:36.484Z,82.85
2023-01-13T18:30:05.232Z,83.54
2023-01-13T18:32:33.620Z,82.65
2023-01-13T18:35:06.672Z,82.29
2023-01-13T18:37:38.919Z,82.14
2023-01-13T18:40:07.739Z,81.58
2023-01-13T18:42:54.221Z,82.45
2023-01-13T18:45:24.722Z,81.38
2023-01-13T18:47:52.111Z,81.47
2023-01-13T18:50:19.143Z,81.64
2023-01-13T18:52:46.074Z,81.40
2023-01-13T18:55:13.259Z,81.71
2023-01-13T18:57:40.709Z,82.45
2023-01-13T19:00:13.496Z,81.73
2023-01-13T19:02:40.773Z,81.88
2023-01-13T19:05:08.429Z,81.26
2023-01-13T19:07:36.266Z,81.51
2023-01-13T19:10:05.667Z,81.57
2023-01-13T19:12:33.811Z,81.56
2023-01-13T19:15:02.792Z,81.27
2023-01-13T19:17:34.422Z,82.26
2023-01-13T19:20:02.157Z,83.08
2023-01-13T19:22:32.881Z,82.42
2023-01-13T19:25:01.634Z,82.81
2023-01-13T19:27:29.802Z,82.41
2023-01-13T19:30:01.508Z,83.35
2023-01-13T19:32:30.947Z,81.97
2023-01-13T19:34:59.776Z,82.44
2023-01-13T19:37:30.495Z,80.78
2023-01-13T19:39:59.278Z,80.68
2023-01-13T19:43:01.906Z,81.48
2023-01-13T19:45:31.282Z,81.47
2023-01-13T19:48:01.892Z,81.89
2023-01-13T19:50:28.863Z,81.44
2023-01-13T19:52:55.762Z,82.58
2023-01-13T19:55:22.795Z,81.53
2023-01-13T19:57:49.974Z,81.19
2023-01-13T20:00:20.737Z,81.29
2023-01-13T20:02:49.342Z,82.39
2023-01-13T20:05:21.436Z,81.72
2023-01-13T20:07:49.839Z,82.16
2023-01-13T20:10:18.208Z,81.17
2023-01-13T20:12:45.094Z,81.66
2023-01-13T20:15:12.169Z,82.23
2023-01-13T20:17:40.541Z,82.63
2023-01-13T20:20:09.086Z,82.54
2023-01-13T20:22:37.582Z,83.41
2023-01-13T20:25:04.821Z,83.01
2023-01-13T20:27:31.788Z,83.09
2023-01-13T20:29:59.127Z,82.36
2023-01-13T20:32:26.125Z,83.48
2023-01-13T20:34:52.983Z,84.12
2023-01-13T20:37:19.839Z,82.40
2023-01-13T20:39:47.179Z,83.63
2023-01-13T20:42:29.350Z,83.41
2023-01-13T20:44:56.814Z,83.29
2023-01-13T20:47:24.566Z,83.60
2023-01-13T20:49:51.503Z,82.89
2023-01-13T20:52:18.355Z,82.65
2023-01-13T20:54:45.203Z,84.04
2023-01-13T20:57:12.689Z,82.81
2023-01-13T20:59:40.001Z,83.25
2023-01-13T21:02:12.547Z,83.59
2023-01-13T21:04:40.130Z,83.77
2023-01-13T21:07:07.064Z,83.07
2023-01-13T21:09:34.099Z,83.43
2023-01-13T21:12:19.348Z,84.02
2023-01-13T21:15:04.946Z,83.66
2023-01-13T21:17:50.314Z,83.29
2023-01-13T21:20:17.318Z,82.94
2023-01-13T21:22:46.348Z,84.23
2023-01-13T21:25:13.983Z,83.14
2023-01-13T21:27:41.075Z,83.36
2023-01-13T21:30:09.235Z,82.47
2023-01-13T21:32:36.044Z,82.60
2023-01-13T21:35:03.058Z,83.60
2023-01-13T21:37:29.963Z,82.72
2023-01-13T21:39:56.956Z,83.27
2023-01-13T21:42:42.614Z,83.48
2023-01-13T21:45:29.421Z,82.93
2023-01-13T21:47:56.660Z,82.65
2023-01-13T21:50:26.080Z,83.22
2023-01-13T21:52:53.073Z,83.01
2023-01-13T21:55:40.355Z,84.40
2023-01-13T21:58:12.863Z,84.62
2023-01-13T22:00:42.155Z,84.11
2023-01-13T22:03:11.470Z,84.33
2023-01-13T22:05:38.406Z,84.25
2023-01-13T22:08:05.715Z,83.45
2023-01-13T22:10:32.919Z,83.90
2023-01-13T22:13:21.516Z,82.63
2023-01-13T22:15:48.595Z,84.08
2023-01-13T22:18:18.089Z,84.76
2023-01-13T22:20:45.432Z,84.26
2023-01-13T22:23:12.613Z,86.44
2023-01-13T22:25:39.554Z,85.14
2023-01-13T22:28:08.755Z,84.26
2023-01-13T22:30:35.702Z,85.71
2023-01-13T22:33:02.534Z,85.25
2023-01-13T22:35:29.422Z,85.00
2023-01-13T22:37:56.307Z,83.92
2023-01-13T22:40:23.091Z,85.43
2023-01-13T22:42:49.998Z,84.55
2023-01-13T22:45:16.901Z,86.24
2023-01-13T22:47:43.796Z,85.69
2023-01-13T22:50:12.742Z,84.50
2023-01-13T22:52:39.719Z,84.83
2023-01-13T22:55:07.264Z,84.56
2023-01-13T22:57:36.339Z,84.80
2023-01-13T23:00:06.329Z,83.13
2023-01-13T23:02:34.563Z,85.00
2023-01-13T23:05:01.905Z,84.19
2023-01-13T23:07:29.268Z,85.11
2023-01-13T23:09:56.220Z,84.91
2023-01-13T23:12:23.159Z,85.27
2023-01-13T23:14:50.142Z,84.84
2023-01-13T23:17:17.000Z,85.60
2023-01-13T23:19:43.862Z,84.17
2023-01-13T23:22:10.734Z,84.80
2023-01-13T23:24:37.589Z,84.20
2023-01-13T23:27:04.519Z,83.63
2023-01-13T23:29:31.775Z,84.23
2023-01-13T23:31:58.678Z,85.12
2023-01-13T23:34:25.598Z,84.47
2023-01-13T23:36:52.631Z,84.12
2023-01-13T23:39:19.606Z,84.23
2023-01-13T23:41:46.458Z,83.26
2023-01-13T23:44:13.316Z,84.18
2023-01-13T23:46:40.227Z,83.30
2023-01-13T23:49:07.240Z,84.78
2023-01-13T23:51:34.262Z,84.18
2023-01-13T23:54:01.416Z,85.61
2023-01-13T23:56:30.796Z,84.13
2023-01-13T23:58:58.186Z,84.58
